sensor_id;sensor_type;location;lat;lon;timestamp;pressure;altitude;pressure_sealevel;temperature;humidity
63916;BME280;50094;51.356;-0.196;2022-08-25T00:01:42;100940.45;;;29.97;37.77
63916;BME280;50094;51.356;-0.196;2022-08-25T00:04:12;100936.01;;;30.15;37.78
63916;BME280;50094;51.356;-0.196;2022-08-25T00:06:42;100926.88;;;30.38;37.78
63916;BME280;50094;51.356;-0.196;2022-08-25T00:09:11;100922.53;;;30.12;37.82
63916;BME280;50094;51.356;-0.196;2022-08-25T00:11:40;100917.25;;;30.14;37.82
63916;BME280;50094;51.356;-0.196;2022-08-25T00:14:10;100917.23;;;30.13;37.83
63916;BME280;50094;51.356;-0.196;2022-08-25T00:16:39;100918.92;;;30.09;37.87
63916;BME280;50094;51.356;-0.196;2022-08-25T00:19:09;100914.64;;;30.13;37.86
63916;BME280;50094;51.356;-0.196;2022-08-25T00:21:38;100913.10;;;30.38;37.87
63916;BME280;50094;51.356;-0.196;2022-08-25T00:24:05;100913.09;;;30.09;37.90
63916;BME280;50094;51.356;-0.196;2022-08-25T00:26:33;100908.28;;;29.91;37.88
63916;BME280;50094;51.356;-0.196;2022-08-25T00:29:00;100903.56;;;30.11;37.92
63916;BME280;50094;51.356;-0.196;2022-08-25T00:31:28;100896.68;;;30.10;37.93
63916;BME280;50094;51.356;-0.196;2022-08-25T00:33:55;100895.42;;;30.15;37.90
63916;BME280;50094;51.356;-0.196;2022-08-25T00:36:23;100898.97;;;30.15;37.89
63916;BME280;50094;51.356;-0.196;2022-08-25T00:38:50;100903.79;;;30.13;37.92
63916;BME280;50094;51.356;-0.196;2022-08-25T00:41:21;100904.27;;;30.37;37.93
63916;BME280;50094;51.356;-0.196;2022-08-25T00:43:52;100902.53;;;30.09;37.97
63916;BME280;50094;51.356;-0.196;2022-08-25T00:46:24;100901.91;;;30.06;38.04
63916;BME280;50094;51.356;-0.196;2022-08-25T00:48:56;100902.60;;;29.87;38.05
63916;BME280;50094;51.356;-0.196;2022-08-25T00:51:41;100900.98;;;30.16;38.02
63916;BME280;50094;51.356;-0.196;2022-08-25T00:54:15;100897.13;;;29.97;38.03
63916;BME280;50094;51.356;-0.196;2022-08-25T00:56:44;100897.80;;;30.30;37.96
63916;BME280;50094;51.356;-0.196;2022-08-25T00:59:13;100899.56;;;30.57;37.99
63916;BME280;50094;51.356;-0.196;2022-08-25T01:01:41;100902.71;;;30.25;38.00
63916;BME280;50094;51.356;-0.196;2022-08-25T01:04:09;100905.25;;;30.26;38.02
63916;BME280;50094;51.356;-0.196;2022-08-25T01:06:39;100911.24;;;30.03;38.05
63916;BME280;50094;51.356;-0.196;2022-08-25T01:09:07;100913.88;;;30.18;38.08
63916;BME280;50094;51.356;-0.196;2022-08-25T01:11:35;100915.68;;;29.93;38.14
63916;BME280;50094;51.356;-0.196;2022-08-25T01:14:03;100909.14;;;30.12;38.17
63916;BME280;50094;51.356;-0.196;2022-08-25T01:16:32;100897.94;;;30.35;38.22
63916;BME280;50094;51.356;-0.196;2022-08-25T01:19:01;100895.07;;;30.10;38.25
63916;BME280;50094;51.356;-0.196;2022-08-25T01:21:30;100891.32;;;30.13;38.24
63916;BME280;50094;51.356;-0.196;2022-08-25T01:23:58;100882.68;;;30.37;38.29
63916;BME280;50094;51.356;-0.196;2022-08-25T01:26:29;100879.21;;;30.33;38.33
63916;BME280;50094;51.356;-0.196;2022-08-25T01:28:58;100875.12;;;30.29;38.36
63916;BME280;50094;51.356;-0.196;2022-08-25T01:31:27;100865.39;;;30.03;38.37
63916;BME280;50094;51.356;-0.196;2022-08-25T01:33:54;100868.49;;;30.27;38.41
63916;BME280;50094;51.356;-0.196;2022-08-25T01:36:23;100862.56;;;29.98;38.44
63916;BME280;50094;51.356;-0.196;2022-08-25T01:38:51;100860.29;;;29.99;38.44
63916;BME280;50094;51.356;-0.196;2022-08-25T01:41:24;100856.94;;;29.95;38.46
63916;BME280;50094;51.356;-0.196;2022-08-25T01:43:52;100863.49;;;30.01;38.40
63916;BME280;50094;51.356;-0.196;2022-08-25T01:46:20;100866.62;;;30.30;38.42
63916;BME280;50094;51.356;-0.196;2022-08-25T01:48:47;100864.11;;;30.01;38.33
63916;BME280;50094;51.356;-0.196;2022-08-25T01:51:15;100865.12;;;29.81;38.28
63916;BME280;50094;51.356;-0.196;2022-08-25T01:53:45;100863.01;;;30.02;38.30
63916;BME280;50094;51.356;-0.196;2022-08-25T01:56:14;100863.28;;;30.02;38.30
63916;BME280;50094;51.356;-0.196;2022-08-25T01:58:45;100864.29;;;30.02;38.24
63916;BME280;50094;51.356;-0.196;2022-08-25T02:01:15;100873.30;;;30.05;38.19
63916;BME280;50094;51.356;-0.196;2022-08-25T02:03:45;100880.53;;;30.04;38.14
63916;BME280;50094;51.356;-0.196;2022-08-25T02:06:16;100886.70;;;30.02;38.10
63916;BME280;50094;51.356;-0.196;2022-08-25T02:08:44;100884.79;;;29.98;38.15
63916;BME280;50094;51.356;-0.196;2022-08-25T02:11:12;100865.51;;;29.77;38.17
63916;BME280;50094;51.356;-0.196;2022-08-25T02:13:40;100835.81;;;30.00;38.21
63916;BME280;50094;51.356;-0.196;2022-08-25T02:16:09;100834.41;;;30.30;38.20
63916;BME280;50094;51.356;-0.196;2022-08-25T02:18:40;100855.07;;;30.01;38.24
63916;BME280;50094;51.356;-0.196;2022-08-25T02:21:08;100861.86;;;29.96;38.23
63916;BME280;50094;51.356;-0.196;2022-08-25T02:23:35;100862.40;;;29.92;38.29
63916;BME280;50094;51.356;-0.196;2022-08-25T02:26:03;100867.31;;;29.67;38.43
63916;BME280;50094;51.356;-0.196;2022-08-25T02:28:30;100873.04;;;29.91;38.39
63916;BME280;50094;51.356;-0.196;2022-08-25T02:30:58;100871.75;;;29.92;38.33
63916;BME280;50094;51.356;-0.196;2022-08-25T02:33:25;100871.17;;;29.90;38.36
63916;BME280;50094;51.356;-0.196;2022-08-25T02:35:56;100868.08;;;29.77;38.29
63916;BME280;50094;51.356;-0.196;2022-08-25T02:38:23;100862.40;;;30.25;38.38
63916;BME280;50094;51.356;-0.196;2022-08-25T02:40:51;100855.88;;;30.18;38.44
63916;BME280;50094;51.356;-0.196;2022-08-25T02:43:19;100846.54;;;29.87;38.56
63916;BME280;50094;51.356;-0.196;2022-08-25T02:45:46;100849.11;;;29.87;38.73
63916;BME280;50094;51.356;-0.196;2022-08-25T02:48:13;100847.52;;;30.14;38.83
63916;BME280;50094;51.356;-0.196;2022-08-25T02:50:45;100837.05;;;29.90;38.91
63916;BME280;50094;51.356;-0.196;2022-08-25T02:53:13;100836.25;;;29.87;39.07
63916;BME280;50094;51.356;-0.196;2022-08-25T02:55:41;100842.52;;;29.95;39.07
63916;BME280;50094;51.356;-0.196;2022-08-25T02:58:08;100842.90;;;29.91;39.15
63916;BME280;50094;51.356;-0.196;2022-08-25T03:00:37;100845.21;;;29.89;39.25
63916;BME280;50094;51.356;-0.196;2022-08-25T03:03:05;100838.86;;;29.71;39.26
63916;BME280;50094;51.356;-0.196;2022-08-25T03:05:32;100828.16;;;30.26;39.26
63916;BME280;50094;51.356;-0.196;2022-08-25T03:07:59;100823.23;;;29.94;39.34
63916;BME280;50094;51.356;-0.196;2022-08-25T03:10:27;100824.68;;;30.25;39.34
63916;BME280;50094;51.356;-0.196;2022-08-25T03:12:54;100822.51;;;29.97;39.30
63916;BME280;50094;51.356;-0.196;2022-08-25T03:15:21;100826.35;;;29.94;39.26
63916;BME280;50094;51.356;-0.196;2022-08-25T03:17:49;100830.74;;;29.88;39.32
63916;BME280;50094;51.356;-0.196;2022-08-25T03:20:17;100823.11;;;30.17;39.38
63916;BME280;50094;51.356;-0.196;2022-08-25T03:22:44;100809.27;;;29.84;39.48
63916;BME280;50094;51.356;-0.196;2022-08-25T03:25:12;100807.06;;;30.11;39.51
63916;BME280;50094;51.356;-0.196;2022-08-25T03:27:39;100804.32;;;29.83;39.57
63916;BME280;50094;51.356;-0.196;2022-08-25T03:30:08;100796.95;;;29.82;39.59
63916;BME280;50094;51.356;-0.196;2022-08-25T03:32:36;100796.82;;;29.84;39.60
63916;BME280;50094;51.356;-0.196;2022-08-25T03:35:04;100798.60;;;29.83;39.67
63916;BME280;50094;51.356;-0.196;2022-08-25T03:37:32;100806.23;;;29.84;39.75
63916;BME280;50094;51.356;-0.196;2022-08-25T03:40:01;100819.37;;;29.88;39.76
63916;BME280;50094;51.356;-0.196;2022-08-25T03:42:29;100826.08;;;30.16;39.73
63916;BME280;50094;51.356;-0.196;2022-08-25T03:44:56;100831.64;;;29.88;39.77
63916;BME280;50094;51.356;-0.196;2022-08-25T03:47:24;100839.48;;;29.88;39.78
63916;BME280;50094;51.356;-0.196;2022-08-25T03:49:51;100831.17;;;29.94;39.79
63916;BME280;50094;51.356;-0.196;2022-08-25T03:52:19;100820.57;;;29.96;39.83
63916;BME280;50094;51.356;-0.196;2022-08-25T03:54:46;100836.64;;;30.15;39.96
63916;BME280;50094;51.356;-0.196;2022-08-25T03:57:14;100840.99;;;29.88;39.94
63916;BME280;50094;51.356;-0.196;2022-08-25T03:59:42;100834.38;;;30.16;39.96
63916;BME280;50094;51.356;-0.196;2022-08-25T04:02:09;100829.55;;;29.85;40.00
63916;BME280;50094;51.356;-0.196;2022-08-25T04:04:36;100821.46;;;29.84;40.02
63916;BME280;50094;51.356;-0.196;2022-08-25T04:07:04;100816.12;;;30.07;40.15
63916;BME280;50094;51.356;-0.196;2022-08-25T04:09:31;100816.64;;;29.81;40.18
63916;BME280;50094;51.356;-0.196;2022-08-25T04:11:59;100819.71;;;29.81;40.17
63916;BME280;50094;51.356;-0.196;2022-08-25T04:14:26;100825.46;;;30.12;40.20
63916;BME280;50094;51.356;-0.196;2022-08-25T04:16:54;100820.52;;;29.84;40.19
63916;BME280;50094;51.356;-0.196;2022-08-25T04:19:22;100814.25;;;30.11;40.23
63916;BME280;50094;51.356;-0.196;2022-08-25T04:21:49;100811.86;;;29.86;40.31
63916;BME280;50094;51.356;-0.196;2022-08-25T04:24:17;100813.69;;;30.14;40.35
63916;BME280;50094;51.356;-0.196;2022-08-25T04:26:47;100816.79;;;29.89;40.31
63916;BME280;50094;51.356;-0.196;2022-08-25T04:29:19;100826.99;;;30.11;40.34
63916;BME280;50094;51.356;-0.196;2022-08-25T04:31:47;100826.35;;;30.08;40.36
63916;BME280;50094;51.356;-0.196;2022-08-25T04:34:14;100818.02;;;30.06;40.37
63916;BME280;50094;51.356;-0.196;2022-08-25T04:36:42;100823.18;;;29.58;40.37
63916;BME280;50094;51.356;-0.196;2022-08-25T04:39:09;100819.85;;;29.81;40.41
63916;BME280;50094;51.356;-0.196;2022-08-25T04:41:37;100825.77;;;29.82;40.41
63916;BME280;50094;51.356;-0.196;2022-08-25T04:44:05;100826.39;;;29.83;40.45
63916;BME280;50094;51.356;-0.196;2022-08-25T04:46:34;100840.10;;;30.05;40.50
63916;BME280;50094;51.356;-0.196;2022-08-25T04:49:02;100862.66;;;30.02;40.57
63916;BME280;50094;51.356;-0.196;2022-08-25T04:51:32;100880.48;;;29.73;40.59
63916;BME280;50094;51.356;-0.196;2022-08-25T04:54:01;100899.27;;;29.74;40.66
63916;BME280;50094;51.356;-0.196;2022-08-25T04:56:29;100920.03;;;29.83;40.58
63916;BME280;50094;51.356;-0.196;2022-08-25T04:59:01;100925.07;;;30.09;40.59
63916;BME280;50094;51.356;-0.196;2022-08-25T05:01:29;100920.91;;;29.86;40.62
63916;BME280;50094;51.356;-0.196;2022-08-25T05:04:00;100914.00;;;29.90;40.59
63916;BME280;50094;51.356;-0.196;2022-08-25T05:06:30;100912.70;;;29.91;40.54
63916;BME280;50094;51.356;-0.196;2022-08-25T05:08:58;100915.61;;;29.88;40.59
63916;BME280;50094;51.356;-0.196;2022-08-25T05:11:26;100914.88;;;30.13;40.62
63916;BME280;50094;51.356;-0.196;2022-08-25T05:13:54;100914.61;;;29.88;40.67
63916;BME280;50094;51.356;-0.196;2022-08-25T05:16:23;100913.63;;;29.89;40.72
63916;BME280;50094;51.356;-0.196;2022-08-25T05:18:51;100909.63;;;30.16;40.77
63916;BME280;50094;51.356;-0.196;2022-08-25T05:21:21;100905.61;;;30.18;40.78
63916;BME280;50094;51.356;-0.196;2022-08-25T05:23:49;100913.95;;;29.89;40.84
63916;BME280;50094;51.356;-0.196;2022-08-25T05:26:18;100921.74;;;29.82;40.88
63916;BME280;50094;51.356;-0.196;2022-08-25T05:28:47;100918.56;;;29.84;40.79
63916;BME280;50094;51.356;-0.196;2022-08-25T05:31:15;100910.78;;;29.57;40.82
63916;BME280;50094;51.356;-0.196;2022-08-25T05:33:43;100910.20;;;29.84;41.18
63916;BME280;50094;51.356;-0.196;2022-08-25T05:36:12;100905.14;;;29.53;41.32
63916;BME280;50094;51.356;-0.196;2022-08-25T05:38:40;100905.50;;;29.85;41.32
63916;BME280;50094;51.356;-0.196;2022-08-25T05:41:09;100907.44;;;29.50;41.41
63916;BME280;50094;51.356;-0.196;2022-08-25T05:43:37;100905.33;;;29.75;41.47
63916;BME280;50094;51.356;-0.196;2022-08-25T05:46:05;100898.64;;;29.52;41.41
63916;BME280;50094;51.356;-0.196;2022-08-25T05:48:32;100889.78;;;29.63;41.38
63916;BME280;50094;51.356;-0.196;2022-08-25T05:51:02;100881.43;;;29.61;41.50
63916;BME280;50094;51.356;-0.196;2022-08-25T05:53:30;100875.88;;;29.60;41.52
63916;BME280;50094;51.356;-0.196;2022-08-25T05:55:58;100872.76;;;29.64;41.42
63916;BME280;50094;51.356;-0.196;2022-08-25T05:58:27;100861.54;;;29.38;41.55
63916;BME280;50094;51.356;-0.196;2022-08-25T06:00:56;100852.94;;;29.93;41.52
63916;BME280;50094;51.356;-0.196;2022-08-25T06:03:24;100848.19;;;29.90;41.52
63916;BME280;50094;51.356;-0.196;2022-08-25T06:05:52;100844.42;;;29.30;41.68
63916;BME280;50094;51.356;-0.196;2022-08-25T06:08:19;100843.87;;;29.75;41.77
63916;BME280;50094;51.356;-0.196;2022-08-25T06:10:51;100842.39;;;29.73;41.96
63916;BME280;50094;51.356;-0.196;2022-08-25T06:13:18;100842.93;;;29.51;41.97
63916;BME280;50094;51.356;-0.196;2022-08-25T06:15:45;100849.53;;;29.48;42.18
63916;BME280;50094;51.356;-0.196;2022-08-25T06:18:12;100856.67;;;29.54;42.21
63916;BME280;50094;51.356;-0.196;2022-08-25T06:20:39;100858.53;;;29.49;42.27
63916;BME280;50094;51.356;-0.196;2022-08-25T06:23:07;100866.79;;;29.90;42.09
63916;BME280;50094;51.356;-0.196;2022-08-25T06:25:35;100875.31;;;29.89;42.04
63916;BME280;50094;51.356;-0.196;2022-08-25T06:28:02;100893.42;;;29.42;42.01
63916;BME280;50094;51.356;-0.196;2022-08-25T06:30:29;100907.24;;;29.43;41.99
63916;BME280;50094;51.356;-0.196;2022-08-25T06:32:56;100918.61;;;29.37;42.05
63916;BME280;50094;51.356;-0.196;2022-08-25T06:35:24;100926.95;;;29.55;42.03
63916;BME280;50094;51.356;-0.196;2022-08-25T06:37:52;100925.19;;;29.80;42.05
63916;BME280;50094;51.356;-0.196;2022-08-25T06:40:19;100913.49;;;29.45;42.12
63916;BME280;50094;51.356;-0.196;2022-08-25T06:42:47;100904.46;;;29.68;42.13
63916;BME280;50094;51.356;-0.196;2022-08-25T06:45:15;100904.97;;;29.64;42.14
63916;BME280;50094;51.356;-0.196;2022-08-25T06:47:42;100911.06;;;29.47;42.11
63916;BME280;50094;51.356;-0.196;2022-08-25T06:50:10;100922.02;;;29.23;42.16
63916;BME280;50094;51.356;-0.196;2022-08-25T06:52:37;100928.35;;;29.65;42.18
63916;BME280;50094;51.356;-0.196;2022-08-25T06:55:05;100928.75;;;29.02;42.36
63916;BME280;50094;51.356;-0.196;2022-08-25T06:57:32;100926.55;;;29.68;42.19
63916;BME280;50094;51.356;-0.196;2022-08-25T07:00:00;100939.18;;;29.53;42.45
63916;BME280;50094;51.356;-0.196;2022-08-25T07:02:27;100951.03;;;29.59;42.43
63916;BME280;50094;51.356;-0.196;2022-08-25T07:04:54;100949.65;;;29.21;42.59
63916;BME280;50094;51.356;-0.196;2022-08-25T07:07:22;100941.75;;;29.02;42.83
63916;BME280;50094;51.356;-0.196;2022-08-25T07:09:49;100931.62;;;29.01;42.95
63916;BME280;50094;51.356;-0.196;2022-08-25T07:12:17;100915.43;;;29.47;42.73
63916;BME280;50094;51.356;-0.196;2022-08-25T07:14:44;100908.61;;;29.26;42.66
63916;BME280;50094;51.356;-0.196;2022-08-25T07:17:12;100899.29;;;29.26;42.63
63916;BME280;50094;51.356;-0.196;2022-08-25T07:19:39;100890.76;;;29.57;42.60
63916;BME280;50094;51.356;-0.196;2022-08-25T07:22:07;100883.37;;;29.63;42.51
63916;BME280;50094;51.356;-0.196;2022-08-25T07:24:34;100880.79;;;29.57;42.59
63916;BME280;50094;51.356;-0.196;2022-08-25T07:27:02;100890.68;;;29.26;42.66
63916;BME280;50094;51.356;-0.196;2022-08-25T07:29:30;100894.75;;;29.61;42.53
63916;BME280;50094;51.356;-0.196;2022-08-25T07:31:57;100890.93;;;29.22;42.60
63916;BME280;50094;51.356;-0.196;2022-08-25T07:34:25;100894.98;;;29.17;42.58
63916;BME280;50094;51.356;-0.196;2022-08-25T07:36:53;100902.98;;;29.45;42.43
63916;BME280;50094;51.356;-0.196;2022-08-25T07:39:21;100907.14;;;29.13;42.58
63916;BME280;50094;51.356;-0.196;2022-08-25T07:41:49;100906.19;;;29.10;42.91
63916;BME280;50094;51.356;-0.196;2022-08-25T07:44:17;100895.47;;;29.44;42.87
63916;BME280;50094;51.356;-0.196;2022-08-25T07:46:44;100894.55;;;29.48;42.84
63916;BME280;50094;51.356;-0.196;2022-08-25T07:49:12;100898.64;;;29.55;42.75
63916;BME280;50094;51.356;-0.196;2022-08-25T07:51:40;100894.19;;;29.39;42.92
63916;BME280;50094;51.356;-0.196;2022-08-25T07:54:07;100908.90;;;29.42;42.80
63916;BME280;50094;51.356;-0.196;2022-08-25T07:56:35;100932.92;;;29.41;42.79
63916;BME280;50094;51.356;-0.196;2022-08-25T07:59:02;100939.43;;;29.09;42.82
63916;BME280;50094;51.356;-0.196;2022-08-25T08:01:30;100935.84;;;29.09;42.85
63916;BME280;50094;51.356;-0.196;2022-08-25T08:03:57;100936.41;;;29.09;42.78
63916;BME280;50094;51.356;-0.196;2022-08-25T08:06:25;100938.49;;;29.39;42.75
63916;BME280;50094;51.356;-0.196;2022-08-25T08:08:53;100936.89;;;29.42;42.73
63916;BME280;50094;51.356;-0.196;2022-08-25T08:11:23;100931.20;;;29.21;42.80
63916;BME280;50094;51.356;-0.196;2022-08-25T08:13:52;100929.61;;;29.25;42.80
63916;BME280;50094;51.356;-0.196;2022-08-25T08:16:21;100923.65;;;29.23;42.89
63916;BME280;50094;51.356;-0.196;2022-08-25T08:18:49;100923.55;;;29.19;42.87
63916;BME280;50094;51.356;-0.196;2022-08-25T08:21:20;100918.57;;;29.06;42.74
63916;BME280;50094;51.356;-0.196;2022-08-25T08:23:49;100913.77;;;29.48;42.80
63916;BME280;50094;51.356;-0.196;2022-08-25T08:26:18;100915.27;;;29.13;42.89
63916;BME280;50094;51.356;-0.196;2022-08-25T08:28:45;100927.07;;;29.18;42.83
63916;BME280;50094;51.356;-0.196;2022-08-25T08:31:12;100929.69;;;29.19;42.78
63916;BME280;50094;51.356;-0.196;2022-08-25T08:33:39;100931.67;;;29.13;42.74
63916;BME280;50094;51.356;-0.196;2022-08-25T08:36:09;100935.38;;;29.06;42.80
63916;BME280;50094;51.356;-0.196;2022-08-25T08:38:38;100937.64;;;29.21;42.95
63916;BME280;50094;51.356;-0.196;2022-08-25T08:41:15;100940.24;;;28.91;43.01
63916;BME280;50094;51.356;-0.196;2022-08-25T08:43:46;100941.25;;;28.85;43.10
63916;BME280;50094;51.356;-0.196;2022-08-25T08:46:13;100944.52;;;28.82;43.16
63916;BME280;50094;51.356;-0.196;2022-08-25T08:48:49;100946.66;;;29.08;43.17
63916;BME280;50094;51.356;-0.196;2022-08-25T08:51:22;100951.08;;;29.16;43.00
63916;BME280;50094;51.356;-0.196;2022-08-25T08:53:54;100952.19;;;28.83;43.00
63916;BME280;50094;51.356;-0.196;2022-08-25T08:56:24;100951.96;;;28.93;43.15
63916;BME280;50094;51.356;-0.196;2022-08-25T08:58:55;100964.32;;;28.84;43.19
63916;BME280;50094;51.356;-0.196;2022-08-25T09:01:27;100968.82;;;28.82;43.08
63916;BME280;50094;51.356;-0.196;2022-08-25T09:04:01;100974.39;;;28.84;43.01
63916;BME280;50094;51.356;-0.196;2022-08-25T09:06:33;100981.49;;;28.76;43.14
63916;BME280;50094;51.356;-0.196;2022-08-25T09:09:04;100983.81;;;28.71;43.52
63916;BME280;50094;51.356;-0.196;2022-08-25T09:11:43;100978.30;;;28.84;43.32
63916;BME280;50094;51.356;-0.196;2022-08-25T09:14:23;100981.82;;;28.57;43.35
63916;BME280;50094;51.356;-0.196;2022-08-25T09:17:00;100984.22;;;28.54;43.37
63916;BME280;50094;51.356;-0.196;2022-08-25T09:19:44;100972.02;;;28.52;43.42
63916;BME280;50094;51.356;-0.196;2022-08-25T09:22:21;100964.31;;;28.70;43.55
63916;BME280;50094;51.356;-0.196;2022-08-25T09:24:58;100974.30;;;28.61;43.47
63916;BME280;50094;51.356;-0.196;2022-08-25T09:27:36;100978.27;;;28.53;43.68
63916;BME280;50094;51.356;-0.196;2022-08-25T09:30:08;100968.56;;;28.86;43.57
63916;BME280;50094;51.356;-0.196;2022-08-25T09:32:39;100965.10;;;28.64;43.64
63916;BME280;50094;51.356;-0.196;2022-08-25T09:35:13;100961.24;;;28.51;43.50
63916;BME280;50094;51.356;-0.196;2022-08-25T09:37:54;100949.32;;;28.89;43.44
63916;BME280;50094;51.356;-0.196;2022-08-25T09:40:22;100945.55;;;28.93;43.35
63916;BME280;50094;51.356;-0.196;2022-08-25T09:42:52;100952.27;;;29.24;43.17
63916;BME280;50094;51.356;-0.196;2022-08-25T09:45:32;100963.39;;;28.68;43.25
63916;BME280;50094;51.356;-0.196;2022-08-25T09:48:00;100965.43;;;28.81;43.45
63916;BME280;50094;51.356;-0.196;2022-08-25T09:50:30;100963.80;;;29.26;43.14
63916;BME280;50094;51.356;-0.196;2022-08-25T09:53:11;100960.25;;;28.92;43.22
63916;BME280;50094;51.356;-0.196;2022-08-25T09:55:39;100954.41;;;28.95;43.18
63916;BME280;50094;51.356;-0.196;2022-08-25T09:58:16;100946.44;;;28.98;43.11
63916;BME280;50094;51.356;-0.196;2022-08-25T10:00:44;100941.72;;;29.01;43.02
63916;BME280;50094;51.356;-0.196;2022-08-25T10:03:25;100938.19;;;28.89;42.86
63916;BME280;50094;51.356;-0.196;2022-08-25T10:06:00;100940.86;;;29.24;42.69
63916;BME280;50094;51.356;-0.196;2022-08-25T10:08:34;100943.98;;;29.25;42.65
63916;BME280;50094;51.356;-0.196;2022-08-25T10:11:05;100953.06;;;29.04;42.94
63916;BME280;50094;51.356;-0.196;2022-08-25T10:13:36;100957.45;;;29.20;42.74
63916;BME280;50094;51.356;-0.196;2022-08-25T10:16:07;100959.17;;;29.10;42.88
63916;BME280;50094;51.356;-0.196;2022-08-25T10:18:35;100963.19;;;28.89;43.12
63916;BME280;50094;51.356;-0.196;2022-08-25T10:21:07;100963.59;;;28.89;43.22
63916;BME280;50094;51.356;-0.196;2022-08-25T10:23:37;100962.86;;;28.88;43.23
63916;BME280;50094;51.356;-0.196;2022-08-25T10:26:12;100962.64;;;29.11;42.92
63916;BME280;50094;51.356;-0.196;2022-08-25T10:28:51;100958.26;;;29.09;42.96
63916;BME280;50094;51.356;-0.196;2022-08-25T10:31:25;100954.11;;;28.86;43.19
63916;BME280;50094;51.356;-0.196;2022-08-25T10:34:08;100951.78;;;29.04;43.02
63916;BME280;50094;51.356;-0.196;2022-08-25T10:36:48;100944.55;;;28.64;43.09
63916;BME280;50094;51.356;-0.196;2022-08-25T10:39:29;100934.56;;;29.14;42.85
63916;BME280;50094;51.356;-0.196;2022-08-25T10:42:13;100925.13;;;29.14;42.84
63916;BME280;50094;51.356;-0.196;2022-08-25T10:44:51;100920.48;;;29.07;42.88
63916;BME280;50094;51.356;-0.196;2022-08-25T10:47:33;100920.48;;;28.93;42.69
63916;BME280;50094;51.356;-0.196;2022-08-25T10:50:13;100916.27;;;28.85;42.72
63916;BME280;50094;51.356;-0.196;2022-08-25T10:52:56;100911.45;;;29.14;42.67
63916;BME280;50094;51.356;-0.196;2022-08-25T10:55:36;100901.09;;;29.22;42.56
63916;BME280;50094;51.356;-0.196;2022-08-25T10:58:17;100889.65;;;29.07;42.70
63916;BME280;50094;51.356;-0.196;2022-08-25T11:00:57;100881.97;;;28.93;42.90
63916;BME280;50094;51.356;-0.196;2022-08-25T11:03:42;100872.31;;;28.93;42.94
63916;BME280;50094;51.356;-0.196;2022-08-25T11:06:15;100866.95;;;28.90;43.01
63916;BME280;50094;51.356;-0.196;2022-08-25T11:08:46;100859.88;;;28.85;43.10
63916;BME280;50094;51.356;-0.196;2022-08-25T11:11:21;100851.68;;;28.94;43.08
63916;BME280;50094;51.356;-0.196;2022-08-25T11:13:54;100835.80;;;28.92;43.18
63916;BME280;50094;51.356;-0.196;2022-08-25T11:16:32;100827.71;;;28.85;43.28
63916;BME280;50094;51.356;-0.196;2022-08-25T11:19:06;100824.12;;;28.77;43.31
63916;BME280;50094;51.356;-0.196;2022-08-25T11:21:42;100812.13;;;28.48;43.40
63916;BME280;50094;51.356;-0.196;2022-08-25T11:24:26;100810.40;;;28.67;43.70
63916;BME280;50094;51.356;-0.196;2022-08-25T11:26:56;100831.01;;;28.67;43.82
63916;BME280;50094;51.356;-0.196;2022-08-25T11:29:26;100846.54;;;28.71;43.93
63916;BME280;50094;51.356;-0.196;2022-08-25T11:31:58;100867.71;;;28.76;43.92
63916;BME280;50094;51.356;-0.196;2022-08-25T11:34:27;100898.42;;;28.96;43.87
63916;BME280;50094;51.356;-0.196;2022-08-25T11:36:59;100936.10;;;28.81;43.70
63916;BME280;50094;51.356;-0.196;2022-08-25T11:39:44;100948.90;;;28.94;43.51
63916;BME280;50094;51.356;-0.196;2022-08-25T11:42:24;100950.18;;;29.08;43.27
63916;BME280;50094;51.356;-0.196;2022-08-25T11:45:04;100950.56;;;29.10;43.19
63916;BME280;50094;51.356;-0.196;2022-08-25T11:47:45;100957.62;;;29.12;43.07
63916;BME280;50094;51.356;-0.196;2022-08-25T11:50:26;100955.45;;;29.13;43.04
63916;BME280;50094;51.356;-0.196;2022-08-25T11:52:55;100954.75;;;28.85;43.06
63916;BME280;50094;51.356;-0.196;2022-08-25T11:55:29;100957.55;;;29.18;43.06
63916;BME280;50094;51.356;-0.196;2022-08-25T11:58:27;100957.91;;;28.98;42.99
63916;BME280;50094;51.356;-0.196;2022-08-25T12:00:57;100953.79;;;29.24;43.01
63916;BME280;50094;51.356;-0.196;2022-08-25T12:04:11;100949.93;;;28.98;43.02
63916;BME280;50094;51.356;-0.196;2022-08-25T12:07:17;100953.51;;;29.28;42.99
63916;BME280;50094;51.356;-0.196;2022-08-25T12:10:20;100965.21;;;29.45;42.85
63916;BME280;50094;51.356;-0.196;2022-08-25T12:14:07;100968.56;;;28.75;43.81
63916;BME280;50094;51.356;-0.196;2022-08-25T12:16:42;100962.34;;;29.06;44.09
63916;BME280;50094;51.356;-0.196;2022-08-25T12:19:29;100961.85;;;28.89;44.38
63916;BME280;50094;51.356;-0.196;2022-08-25T12:22:37;100956.51;;;29.00;44.31
63916;BME280;50094;51.356;-0.196;2022-08-25T12:25:08;100961.26;;;29.11;44.20
63916;BME280;50094;51.356;-0.196;2022-08-25T12:27:42;100963.73;;;29.16;44.07
63916;BME280;50094;51.356;-0.196;2022-08-25T12:30:19;100969.82;;;29.09;44.15
63916;BME280;50094;51.356;-0.196;2022-08-25T12:32:58;100978.96;;;28.96;44.47
63916;BME280;50094;51.356;-0.196;2022-08-25T12:35:30;100980.77;;;28.63;45.00
63916;BME280;50094;51.356;-0.196;2022-08-25T12:38:02;100980.80;;;28.63;44.73
63916;BME280;50094;51.356;-0.196;2022-08-25T12:40:35;100977.84;;;28.81;44.47
63916;BME280;50094;51.356;-0.196;2022-08-25T12:43:07;100984.40;;;28.47;44.61
63916;BME280;50094;51.356;-0.196;2022-08-25T12:45:39;100980.60;;;28.77;44.26
63916;BME280;50094;51.356;-0.196;2022-08-25T12:48:52;100982.20;;;28.76;44.15
63916;BME280;50094;51.356;-0.196;2022-08-25T12:51:22;100985.11;;;28.67;44.24
63916;BME280;50094;51.356;-0.196;2022-08-25T12:53:51;100982.89;;;28.84;44.22
63916;BME280;50094;51.356;-0.196;2022-08-25T12:56:26;100986.32;;;29.16;43.92
63916;BME280;50094;51.356;-0.196;2022-08-25T12:59:04;100991.16;;;29.04;43.83
63916;BME280;50094;51.356;-0.196;2022-08-25T13:01:43;100985.41;;;29.02;43.73